sensor_id;sensor_type;location;lat;lon;timestamp;temperature;humidity
8994;DHT22;4532;50.886;4.700;2022-12-16T00:01:21;-0.30;99.90
8994;DHT22;4532;50.886;4.700;2022-12-16T00:03:59;-0.30;99.90
8994;DHT22;4532;50.886;4.700;2022-12-16T00:06:32;-0.30;99.90
8994;DHT22;4532;50.886;4.700;2022-12-16T00:09:02;-0.30;99.90
8994;DHT22;4532;50.886;4.700;2022-12-16T00:11:29;-0.30;99.90
8994;DHT22;4532;50.886;4.700;2022-12-16T00:14:02;-0.20;99.90
8994;DHT22;4532;50.886;4.700;2022-12-16T00:16:32;-0.20;99.90
8994;DHT22;4532;50.886;4.700;2022-12-16T00:19:04;-0.20;99.90
8994;DHT22;4532;50.886;4.700;2022-12-16T00:21:31;-0.10;99.90
8994;DHT22;4532;50.886;4.700;2022-12-16T00:23:58;-0.10;99.90
8994;DHT22;4532;50.886;4.700;2022-12-16T00:26:29;-0.10;99.90
8994;DHT22;4532;50.886;4.700;2022-12-16T00:28:57;-0.10;99.90
8994;DHT22;4532;50.886;4.700;2022-12-16T00:31:27;0.00;99.90
8994;DHT22;4532;50.886;4.700;2022-12-16T00:33:59;0.00;99.90
8994;DHT22;4532;50.886;4.700;2022-12-16T00:36:29;0.00;99.90
8994;DHT22;4532;50.886;4.700;2022-12-16T00:38:56;0.10;99.90
8994;DHT22;4532;50.886;4.700;2022-12-16T00:41:23;0.10;99.90
8994;DHT22;4532;50.886;4.700;2022-12-16T00:43:52;0.10;99.90
8994;DHT22;4532;50.886;4.700;2022-12-16T00:46:22;0.10;99.90
8994;DHT22;4532;50.886;4.700;2022-12-16T00:48:55;0.10;99.90
8994;DHT22;4532;50.886;4.700;2022-12-16T00:51:22;0.20;99.90
8994;DHT22;4532;50.886;4.700;2022-12-16T00:53:50;0.20;99.90
8994;DHT22;4532;50.886;4.700;2022-12-16T00:56:17;0.20;99.90
8994;DHT22;4532;50.886;4.700;2022-12-16T00:58:45;0.30;99.90
8994;DHT22;4532;50.886;4.700;2022-12-16T01:01:12;0.30;99.90
8994;DHT22;4532;50.886;4.700;2022-12-16T01:03:40;0.30;99.90
8994;DHT22;4532;50.886;4.700;2022-12-16T01:06:10;0.40;99.90
8994;DHT22;4532;50.886;4.700;2022-12-16T01:08:38;0.40;99.90
8994;DHT22;4532;50.886;4.700;2022-12-16T01:11:05;0.40;99.90
8994;DHT22;4532;50.886;4.700;2022-12-16T01:13:32;0.40;99.90
8994;DHT22;4532;50.886;4.700;2022-12-16T01:16:01;0.40;99.90
8994;DHT22;4532;50.886;4.700;2022-12-16T01:18:31;0.40;99.90
8994;DHT22;4532;50.886;4.700;2022-12-16T01:21:05;0.50;99.90
8994;DHT22;4532;50.886;4.700;2022-12-16T01:23:34;0.50;99.90
8994;DHT22;4532;50.886;4.700;2022-12-16T01:26:04;0.50;99.90
8994;DHT22;4532;50.886;4.700;2022-12-16T01:28:38;0.50;99.90
8994;DHT22;4532;50.886;4.700;2022-12-16T01:31:06;0.60;99.90
8994;DHT22;4532;50.886;4.700;2022-12-16T01:33:35;0.60;99.90
8994;DHT22;4532;50.886;4.700;2022-12-16T01:36:09;0.60;99.90
8994;DHT22;4532;50.886;4.700;2022-12-16T01:38:43;0.70;99.90
8994;DHT22;4532;50.886;4.700;2022-12-16T01:41:13;0.70;99.90
8994;DHT22;4532;50.886;4.700;2022-12-16T01:43:44;0.80;99.90
8994;DHT22;4532;50.886;4.700;2022-12-16T01:51:27;0.90;99.90
8994;DHT22;4532;50.886;4.700;2022-12-16T01:54:29;0.90;99.90
8994;DHT22;4532;50.886;4.700;2022-12-16T01:57:05;0.90;99.90
8994;DHT22;4532;50.886;4.700;2022-12-16T01:59:38;1.00;99.90
8994;DHT22;4532;50.886;4.700;2022-12-16T02:02:08;1.00;99.90
8994;DHT22;4532;50.886;4.700;2022-12-16T02:04:37;1.00;99.90
8994;DHT22;4532;50.886;4.700;2022-12-16T02:07:31;1.00;99.90
8994;DHT22;4532;50.886;4.700;2022-12-16T02:09:59;1.00;99.90
8994;DHT22;4532;50.886;4.700;2022-12-16T02:12:34;1.10;99.90
8994;DHT22;4532;50.886;4.700;2022-12-16T02:21:09;1.10;99.90
8994;DHT22;4532;50.886;4.700;2022-12-16T02:38:08;1.20;99.90
8994;DHT22;4532;50.886;4.700;2022-12-16T02:40:45;1.30;99.90
8994;DHT22;4532;50.886;4.700;2022-12-16T02:46:08;1.20;99.90
8994;DHT22;4532;50.886;4.700;2022-12-16T02:48:41;1.20;99.90
8994;DHT22;4532;50.886;4.700;2022-12-16T02:51:08;1.30;99.90
8994;DHT22;4532;50.886;4.700;2022-12-16T02:53:39;1.30;99.90
8994;DHT22;4532;50.886;4.700;2022-12-16T03:04:11;1.40;99.90
8994;DHT22;4532;50.886;4.700;2022-12-16T03:06:46;1.40;99.90
8994;DHT22;4532;50.886;4.700;2022-12-16T03:09:23;1.40;99.90
8994;DHT22;4532;50.886;4.700;2022-12-16T03:11:53;1.40;99.90
8994;DHT22;4532;50.886;4.700;2022-12-16T03:14:26;1.40;99.90
8994;DHT22;4532;50.886;4.700;2022-12-16T03:16:56;1.40;99.90
8994;DHT22;4532;50.886;4.700;2022-12-16T03:19:25;1.40;99.90
8994;DHT22;4532;50.886;4.700;2022-12-16T03:21:54;1.40;99.90
8994;DHT22;4532;50.886;4.700;2022-12-16T03:24:23;1.40;99.90
8994;DHT22;4532;50.886;4.700;2022-12-16T03:27:15;1.50;99.90
8994;DHT22;4532;50.886;4.700;2022-12-16T03:30:11;1.50;99.90
8994;DHT22;4532;50.886;4.700;2022-12-16T03:32:46;1.50;99.90
8994;DHT22;4532;50.886;4.700;2022-12-16T03:35:43;1.50;99.90
8994;DHT22;4532;50.886;4.700;2022-12-16T03:38:12;1.50;99.90
8994;DHT22;4532;50.886;4.700;2022-12-16T03:40:41;1.60;99.90
8994;DHT22;4532;50.886;4.700;2022-12-16T03:43:14;1.60;99.90
8994;DHT22;4532;50.886;4.700;2022-12-16T03:45:43;1.60;99.90
8994;DHT22;4532;50.886;4.700;2022-12-16T03:48:16;1.60;99.90
8994;DHT22;4532;50.886;4.700;2022-12-16T03:50:48;1.70;99.90
8994;DHT22;4532;50.886;4.700;2022-12-16T03:53:20;1.70;99.90
8994;DHT22;4532;50.886;4.700;2022-12-16T03:55:55;1.70;99.90
8994;DHT22;4532;50.886;4.700;2022-12-16T03:58:22;1.70;99.90
8994;DHT22;4532;50.886;4.700;2022-12-16T04:00:54;1.80;99.90
8994;DHT22;4532;50.886;4.700;2022-12-16T04:03:22;1.80;99.90
8994;DHT22;4532;50.886;4.700;2022-12-16T04:05:49;1.80;99.90
8994;DHT22;4532;50.886;4.700;2022-12-16T04:08:21;1.80;99.90
8994;DHT22;4532;50.886;4.700;2022-12-16T04:10:53;1.80;99.90
8994;DHT22;4532;50.886;4.700;2022-12-16T04:13:44;1.90;99.90
8994;DHT22;4532;50.886;4.700;2022-12-16T04:16:35;1.90;99.90
8994;DHT22;4532;50.886;4.700;2022-12-16T04:19:27;2.00;99.90
8994;DHT22;4532;50.886;4.700;2022-12-16T04:22:21;2.10;99.90
8994;DHT22;4532;50.886;4.700;2022-12-16T04:25:37;2.10;99.90
8994;DHT22;4532;50.886;4.700;2022-12-16T04:28:04;2.20;99.90
8994;DHT22;4532;50.886;4.700;2022-12-16T04:30:32;2.20;99.90
8994;DHT22;4532;50.886;4.700;2022-12-16T04:33:09;2.30;99.90
8994;DHT22;4532;50.886;4.700;2022-12-16T04:35:57;2.30;99.90
8994;DHT22;4532;50.886;4.700;2022-12-16T04:38:43;2.40;99.90
8994;DHT22;4532;50.886;4.700;2022-12-16T04:41:28;2.40;99.90
8994;DHT22;4532;50.886;4.700;2022-12-16T04:44:17;2.40;99.90
8994;DHT22;4532;50.886;4.700;2022-12-16T04:47:02;2.50;99.90
8994;DHT22;4532;50.886;4.700;2022-12-16T04:49:48;2.50;99.90
8994;DHT22;4532;50.886;4.700;2022-12-16T04:52:34;2.50;99.90
8994;DHT22;4532;50.886;4.700;2022-12-16T04:55:19;2.50;99.90
8994;DHT22;4532;50.886;4.700;2022-12-16T04:58:08;2.50;99.90
8994;DHT22;4532;50.886;4.700;2022-12-16T05:00:54;2.50;99.90
8994;DHT22;4532;50.886;4.700;2022-12-16T05:03:39;2.50;99.90
8994;DHT22;4532;50.886;4.700;2022-12-16T05:06:27;2.60;99.90
8994;DHT22;4532;50.886;4.700;2022-12-16T05:09:13;2.60;99.90
8994;DHT22;4532;50.886;4.700;2022-12-16T05:12:03;2.60;99.90
8994;DHT22;4532;50.886;4.700;2022-12-16T05:14:49;2.60;99.90
8994;DHT22;4532;50.886;4.700;2022-12-16T05:17:37;2.60;99.90
8994;DHT22;4532;50.886;4.700;2022-12-16T05:20:25;2.70;99.90
8994;DHT22;4532;50.886;4.700;2022-12-16T05:23:11;2.70;99.90
8994;DHT22;4532;50.886;4.700;2022-12-16T05:26:02;2.60;99.90
8994;DHT22;4532;50.886;4.700;2022-12-16T05:28:47;2.70;99.90
8994;DHT22;4532;50.886;4.700;2022-12-16T05:31:33;2.70;99.90
8994;DHT22;4532;50.886;4.700;2022-12-16T05:34:19;2.70;99.90
8994;DHT22;4532;50.886;4.700;2022-12-16T05:37:05;2.70;99.90
8994;DHT22;4532;50.886;4.700;2022-12-16T05:39:51;2.70;99.90
8994;DHT22;4532;50.886;4.700;2022-12-16T05:42:36;2.70;99.90
8994;DHT22;4532;50.886;4.700;2022-12-16T05:45:22;2.80;99.90
8994;DHT22;4532;50.886;4.700;2022-12-16T05:48:10;2.80;99.90
8994;DHT22;4532;50.886;4.700;2022-12-16T05:50:57;2.80;99.90
8994;DHT22;4532;50.886;4.700;2022-12-16T05:53:43;2.70;99.90
8994;DHT22;4532;50.886;4.700;2022-12-16T05:56:29;2.80;99.90
8994;DHT22;4532;50.886;4.700;2022-12-16T05:59:17;2.80;99.90
8994;DHT22;4532;50.886;4.700;2022-12-16T06:02:04;2.70;99.90
8994;DHT22;4532;50.886;4.700;2022-12-16T06:04:52;2.80;99.90
8994;DHT22;4532;50.886;4.700;2022-12-16T06:07:38;2.80;99.90
8994;DHT22;4532;50.886;4.700;2022-12-16T06:10:24;2.80;99.90
8994;DHT22;4532;50.886;4.700;2022-12-16T06:13:09;2.80;99.90
8994;DHT22;4532;50.886;4.700;2022-12-16T06:15:55;2.80;99.90
8994;DHT22;4532;50.886;4.700;2022-12-16T06:18:44;2.80;99.90
8994;DHT22;4532;50.886;4.700;2022-12-16T06:21:29;2.80;99.90
8994;DHT22;4532;50.886;4.700;2022-12-16T06:24:15;2.80;99.90
8994;DHT22;4532;50.886;4.700;2022-12-16T06:27:02;2.90;99.90
8994;DHT22;4532;50.886;4.700;2022-12-16T06:29:48;2.90;99.90
8994;DHT22;4532;50.886;4.700;2022-12-16T06:32:36;2.90;99.90
8994;DHT22;4532;50.886;4.700;2022-12-16T06:35:24;2.90;99.90
8994;DHT22;4532;50.886;4.700;2022-12-16T06:38:12;2.90;99.90
8994;DHT22;4532;50.886;4.700;2022-12-16T06:40:58;2.90;99.90
8994;DHT22;4532;50.886;4.700;2022-12-16T06:43:44;2.90;99.90
8994;DHT22;4532;50.886;4.700;2022-12-16T06:46:29;2.90;99.90
8994;DHT22;4532;50.886;4.700;2022-12-16T06:49:15;2.90;99.90
8994;DHT22;4532;50.886;4.700;2022-12-16T06:52:00;3.00;99.90
8994;DHT22;4532;50.886;4.700;2022-12-16T06:54:46;3.00;99.90
8994;DHT22;4532;50.886;4.700;2022-12-16T06:57:31;3.00;99.90
8994;DHT22;4532;50.886;4.700;2022-12-16T07:00:18;3.00;99.90
8994;DHT22;4532;50.886;4.700;2022-12-16T07:03:06;3.10;99.90
8994;DHT22;4532;50.886;4.700;2022-12-16T07:05:54;3.10;99.90
8994;DHT22;4532;50.886;4.700;2022-12-16T07:08:40;3.10;99.90
8994;DHT22;4532;50.886;4.700;2022-12-16T07:11:25;3.20;99.90
8994;DHT22;4532;50.886;4.700;2022-12-16T07:14:11;3.20;99.90
8994;DHT22;4532;50.886;4.700;2022-12-16T07:16:59;3.20;99.90
8994;DHT22;4532;50.886;4.700;2022-12-16T07:19:45;3.20;99.90
8994;DHT22;4532;50.886;4.700;2022-12-16T07:22:30;3.20;99.90
8994;DHT22;4532;50.886;4.700;2022-12-16T07:25:24;3.20;99.90
8994;DHT22;4532;50.886;4.700;2022-12-16T07:28:12;3.30;99.90
8994;DHT22;4532;50.886;4.700;2022-12-16T07:30:58;3.30;99.90
8994;DHT22;4532;50.886;4.700;2022-12-16T07:33:43;3.30;99.90
8994;DHT22;4532;50.886;4.700;2022-12-16T07:36:32;3.30;99.90
8994;DHT22;4532;50.886;4.700;2022-12-16T07:39:20;3.30;99.90
8994;DHT22;4532;50.886;4.700;2022-12-16T07:42:06;3.30;99.90
8994;DHT22;4532;50.886;4.700;2022-12-16T07:44:54;3.30;99.90
8994;DHT22;4532;50.886;4.700;2022-12-16T07:47:46;3.30;99.90
8994;DHT22;4532;50.886;4.700;2022-12-16T07:50:33;3.40;99.90
8994;DHT22;4532;50.886;4.700;2022-12-16T07:53:19;3.30;99.90
8994;DHT22;4532;50.886;4.700;2022-12-16T07:56:08;3.40;99.90
8994;DHT22;4532;50.886;4.700;2022-12-16T07:58:54;3.30;99.90
8994;DHT22;4532;50.886;4.700;2022-12-16T08:01:40;3.40;99.90
8994;DHT22;4532;50.886;4.700;2022-12-16T08:04:29;3.30;99.90
8994;DHT22;4532;50.886;4.700;2022-12-16T08:07:14;3.30;99.90
8994;DHT22;4532;50.886;4.700;2022-12-16T08:10:05;3.30;99.90
8994;DHT22;4532;50.886;4.700;2022-12-16T08:12:58;3.30;99.90
8994;DHT22;4532;50.886;4.700;2022-12-16T08:15:58;3.30;99.90
8994;DHT22;4532;50.886;4.700;2022-12-16T08:18:46;3.20;99.90
8994;DHT22;4532;50.886;4.700;2022-12-16T08:21:37;3.30;99.90
8994;DHT22;4532;50.886;4.700;2022-12-16T08:24:23;3.30;99.90
8994;DHT22;4532;50.886;4.700;2022-12-16T08:27:15;3.20;99.90
8994;DHT22;4532;50.886;4.700;2022-12-16T08:30:01;3.20;99.90
8994;DHT22;4532;50.886;4.700;2022-12-16T08:32:47;3.20;99.90
8994;DHT22;4532;50.886;4.700;2022-12-16T08:35:45;3.10;99.90
8994;DHT22;4532;50.886;4.700;2022-12-16T08:38:33;3.10;99.90
8994;DHT22;4532;50.886;4.700;2022-12-16T08:41:21;3.10;99.90
8994;DHT22;4532;50.886;4.700;2022-12-16T08:44:07;3.10;99.90
8994;DHT22;4532;50.886;4.700;2022-12-16T08:46:52;3.10;99.90
8994;DHT22;4532;50.886;4.700;2022-12-16T08:49:38;3.10;99.90
8994;DHT22;4532;50.886;4.700;2022-12-16T08:52:28;3.10;99.90
8994;DHT22;4532;50.886;4.700;2022-12-16T08:55:16;3.10;99.90
8994;DHT22;4532;50.886;4.700;2022-12-16T08:58:02;3.10;99.90
8994;DHT22;4532;50.886;4.700;2022-12-16T09:00:47;3.10;99.90
8994;DHT22;4532;50.886;4.700;2022-12-16T09:03:38;3.10;99.90
8994;DHT22;4532;50.886;4.700;2022-12-16T09:06:25;3.10;99.90
8994;DHT22;4532;50.886;4.700;2022-12-16T09:09:10;3.10;99.90
8994;DHT22;4532;50.886;4.700;2022-12-16T09:11:56;3.20;99.90
8994;DHT22;4532;50.886;4.700;2022-12-16T09:14:42;3.10;99.90
8994;DHT22;4532;50.886;4.700;2022-12-16T09:17:27;3.20;99.90
8994;DHT22;4532;50.886;4.700;2022-12-16T09:20:13;3.20;99.90
8994;DHT22;4532;50.886;4.700;2022-12-16T09:23:04;3.20;99.90
8994;DHT22;4532;50.886;4.700;2022-12-16T09:25:52;3.30;99.90
8994;DHT22;4532;50.886;4.700;2022-12-16T09:28:38;3.30;99.90
8994;DHT22;4532;50.886;4.700;2022-12-16T09:31:24;3.20;99.90
8994;DHT22;4532;50.886;4.700;2022-12-16T09:34:12;3.30;99.90
8994;DHT22;4532;50.886;4.700;2022-12-16T09:36:57;3.30;99.90
8994;DHT22;4532;50.886;4.700;2022-12-16T09:39:45;3.30;99.90
8994;DHT22;4532;50.886;4.700;2022-12-16T09:42:50;3.30;99.90
8994;DHT22;4532;50.886;4.700;2022-12-16T09:48:44;3.30;99.90
8994;DHT22;4532;50.886;4.700;2022-12-16T09:51:36;3.30;99.90
8994;DHT22;4532;50.886;4.700;2022-12-16T09:54:26;3.30;99.90
8994;DHT22;4532;50.886;4.700;2022-12-16T09:57:14;3.30;99.90
8994;DHT22;4532;50.886;4.700;2022-12-16T10:00:12;3.30;99.90
8994;DHT22;4532;50.886;4.700;2022-12-16T10:03:13;3.30;99.90
8994;DHT22;4532;50.886;4.700;2022-12-16T10:06:06;3.30;99.90
8994;DHT22;4532;50.886;4.700;2022-12-16T10:09:01;3.40;99.90
8994;DHT22;4532;50.886;4.700;2022-12-16T10:18:38;3.50;99.90
8994;DHT22;4532;50.886;4.700;2022-12-16T10:21:31;3.50;99.90
8994;DHT22;4532;50.886;4.700;2022-12-16T10:24:29;3.60;99.90
8994;DHT22;4532;50.886;4.700;2022-12-16T10:27:30;3.50;99.90
8994;DHT22;4532;50.886;4.700;2022-12-16T10:30:20;3.60;99.90
8994;DHT22;4532;50.886;4.700;2022-12-16T10:33:09;3.60;99.90
8994;DHT22;4532;50.886;4.700;2022-12-16T10:36:01;3.50;99.90
8994;DHT22;4532;50.886;4.700;2022-12-16T10:38:56;3.40;99.90
8994;DHT22;4532;50.886;4.700;2022-12-16T10:41:46;3.50;99.90
8994;DHT22;4532;50.886;4.700;2022-12-16T10:44:52;3.40;99.90
8994;DHT22;4532;50.886;4.700;2022-12-16T10:47:39;3.40;99.90
8994;DHT22;4532;50.886;4.700;2022-12-16T10:50:27;3.30;99.90
8994;DHT22;4532;50.886;4.700;2022-12-16T10:59:17;3.40;99.90
8994;DHT22;4532;50.886;4.700;2022-12-16T11:02:23;3.40;99.90
8994;DHT22;4532;50.886;4.700;2022-12-16T11:05:29;3.40;99.90
8994;DHT22;4532;50.886;4.700;2022-12-16T11:08:28;3.50;99.90
8994;DHT22;4532;50.886;4.700;2022-12-16T11:11:21;3.60;99.90
8994;DHT22;4532;50.886;4.700;2022-12-16T11:14:21;3.60;99.90
8994;DHT22;4532;50.886;4.700;2022-12-16T11:17:27;3.70;99.90
8994;DHT22;4532;50.886;4.700;2022-12-16T11:20:25;3.60;99.90
8994;DHT22;4532;50.886;4.700;2022-12-16T11:23:22;3.60;99.90
8994;DHT22;4532;50.886;4.700;2022-12-16T11:26:15;3.60;99.90
8994;DHT22;4532;50.886;4.700;2022-12-16T11:29:13;3.60;99.90
8994;DHT22;4532;50.886;4.700;2022-12-16T11:32:02;3.60;99.90
8994;DHT22;4532;50.886;4.700;2022-12-16T11:34:58;3.60;99.90
8994;DHT22;4532;50.886;4.700;2022-12-16T11:37:46;3.70;99.90
8994;DHT22;4532;50.886;4.700;2022-12-16T11:40:33;3.70;99.90
8994;DHT22;4532;50.886;4.700;2022-12-16T11:43:23;3.70;99.90
8994;DHT22;4532;50.886;4.700;2022-12-16T11:46:16;3.70;99.90
8994;DHT22;4532;50.886;4.700;2022-12-16T11:49:06;3.80;99.90
8994;DHT22;4532;50.886;4.700;2022-12-16T11:52:02;3.80;99.90
8994;DHT22;4532;50.886;4.700;2022-12-16T11:59:05;3.90;99.90
8994;DHT22;4532;50.886;4.700;2022-12-16T12:01:55;3.90;99.90
8994;DHT22;4532;50.886;4.700;2022-12-16T12:04:44;3.90;99.90
8994;DHT22;4532;50.886;4.700;2022-12-16T12:07:43;4.00;99.90
8994;DHT22;4532;50.886;4.700;2022-12-16T12:11:03;3.90;99.90
8994;DHT22;4532;50.886;4.700;2022-12-16T12:20:01;3.90;99.90
8994;DHT22;4532;50.886;4.700;2022-12-16T12:22:48;4.00;99.90
8994;DHT22;4532;50.886;4.700;2022-12-16T12:31:50;4.00;99.90
8994;DHT22;4532;50.886;4.700;2022-12-16T12:35:00;4.10;99.90
8994;DHT22;4532;50.886;4.700;2022-12-16T12:37:59;4.10;99.90
8994;DHT22;4532;50.886;4.700;2022-12-16T12:43:55;4.20;99.90
8994;DHT22;4532;50.886;4.700;2022-12-16T12:46:53;4.20;99.90
8994;DHT22;4532;50.886;4.700;2022-12-16T12:55:43;4.20;99.90
8994;DHT22;4532;50.886;4.700;2022-12-16T12:58:35;4.20;99.90
8994;DHT22;4532;50.886;4.700;2022-12-16T13:01:27;4.20;99.90
8994;DHT22;4532;50.886;4.700;2022-12-16T13:04:21;4.30;99.90
8994;DHT22;4532;50.886;4.700;2022-12-16T13:07:10;4.30;99.90
8994;DHT22;4532;50.886;4.700;2022-12-16T13:16:02;4.30;99.90
8994;DHT22;4532;50.886;4.700;2022-12-16T13:22:29;4.30;99.90
8994;DHT22;4532;50.886;4.700;2022-12-16T13:25:47;4.30;99.90
8994;DHT22;4532;50.886;4.700;2022-12-16T13:28:41;4.30;99.90
8994;DHT22;4532;50.886;4.700;2022-12-16T13:31:27;4.30;99.90
8994;DHT22;4532;50.886;4.700;2022-12-16T13:34:27;4.30;99.90
8994;DHT22;4532;50.886;4.700;2022-12-16T13:37:24;4.30;99.90
8994;DHT22;4532;50.886;4.700;2022-12-16T13:40:19;4.30;99.90
8994;DHT22;4532;50.886;4.700;2022-12-16T13:43:13;4.30;99.90
8994;DHT22;4532;50.886;4.700;2022-12-16T13:48:51;4.30;99.90
8994;DHT22;4532;50.886;4.700;2022-12-16T13:54:28;4.30;99.90
8994;DHT22;4532;50.886;4.700;2022-12-16T13:57:18;4.30;99.90
8994;DHT22;4532;50.886;4.700;2022-12-16T14:00:17;4.30;99.90
8994;DHT22;4532;50.886;4.700;2022-12-16T14:03:17;4.30;99.90
8994;DHT22;4532;50.886;4.700;2022-12-16T14:06:11;4.30;99.90
8994;DHT22;4532;50.886;4.700;2022-12-16T14:09:00;4.20;99.90
8994;DHT22;4532;50.886;4.700;2022-12-16T14:12:00;4.20;99.90
8994;DHT22;4532;50.886;4.700;2022-12-16T14:14:51;4.20;99.90
8994;DHT22;4532;50.886;4.700;2022-12-16T14:17:47;4.30;99.90
8994;DHT22;4532;50.886;4.700;2022-12-16T14:20:48;4.30;99.90
8994;DHT22;4532;50.886;4.700;2022-12-16T14:23:52;4.30;99.90
8994;DHT22;4532;50.886;4.700;2022-12-16T14:26:44;4.30;99.90
8994;DHT22;4532;50.886;4.700;2022-12-16T14:29:31;4.40;99.90
8994;DHT22;4532;50.886;4.700;2022-12-16T14:32:29;4.50;99.90
8994;DHT22;4532;50.886;4.700;2022-12-16T14:35:21;4.60;99.90
8994;DHT22;4532;50.886;4.700;2022-12-16T14:38:27;4.60;99.90
8994;DHT22;4532;50.886;4.700;2022-12-16T14:41:21;4.60;99.90
8994;DHT22;4532;50.886;4.700;2022-12-16T14:44:22;4.60;99.90
8994;DHT22;4532;50.886;4.700;2022-12-16T14:47:19;4.60;99.90
8994;DHT22;4532;50.886;4.700;2022-12-16T14:50:26;4.60;99.90
8994;DHT22;4532;50.886;4.700;2022-12-16T14:53:23;4.60;99.90
8994;DHT22;4532;50.886;4.700;2022-12-16T14:56:22;4.60;99.90
8994;DHT22;4532;50.886;4.700;2022-12-16T14:59:15;4.60;99.90
8994;DHT22;4532;50.886;4.700;2022-12-16T15:02:23;4.60;99.90
8994;DHT22;4532;50.886;4.700;2022-12-16T15:05:15;4.50;99.90
8994;DHT22;4532;50.886;4.700;2022-12-16T15:08:01;4.50;99.90
8994;DHT22;4532;50.886;4.700;2022-12-16T15:10:49;4.40;99.90
8994;DHT22;4532;50.886;4.700;2022-12-16T15:13:37;4.40;99.90
8994;DHT22;4532;50.886;4.700;2022-12-16T15:16:32;4.40;99.90
8994;DHT22;4532;50.886;4.700;2022-12-16T15:19:23;4.30;99.90
8994;DHT22;4532;50.886;4.700;2022-12-16T15:22:21;4.30;99.90
8994;DHT22;4532;50.886;4.700;2022-12-16T15:25:17;4.20;99.90
8994;DHT22;4532;50.886;4.700;2022-12-16T15:28:03;4.10;99.90
8994;DHT22;4532;50.886;4.700;2022-12-16T15:30:52;4.10;99.90
8994;DHT22;4532;50.886;4.700;2022-12-16T15:33:38;4.00;99.90
8994;DHT22;4532;50.886;4.700;2022-12-16T15:36:29;3.90;99.90
8994;DHT22;4532;50.886;4.700;2022-12-16T15:39:35;3.80;99.90
8994;DHT22;4532;50.886;4.700;2022-12-16T15:45:30;3.70;99.90
8994;DHT22;4532;50.886;4.700;2022-12-16T15:54:22;3.50;99.90
8994;DHT22;4532;50.886;4.700;2022-12-16T15:57:33;3.40;99.90
8994;DHT22;4532;50.886;4.700;2022-12-16T16:00:29;3.40;99.90
8994;DHT22;4532;50.886;4.700;2022-12-16T16:03:20;3.30;99.90
8994;DHT22;4532;50.886;4.700;2022-12-16T16:06:17;3.30;99.90
8994;DHT22;4532;50.886;4.700;2022-12-16T16:12:12;3.30;99.90
8994;DHT22;4532;50.886;4.700;2022-12-16T16:14:58;3.20;99.90
8994;DHT22;4532;50.886;4.700;2022-12-16T16:18:04;3.20;99.90
8994;DHT22;4532;50.886;4.700;2022-12-16T16:20:50;3.20;99.90
8994;DHT22;4532;50.886;4.700;2022-12-16T16:23:36;3.20;99.90
8994;DHT22;4532;50.886;4.700;2022-12-16T16:26:25;3.20;99.90
8994;DHT22;4532;50.886;4.700;2022-12-16T16:29:11;3.10;99.90
8994;DHT22;4532;50.886;4.700;2022-12-16T16:31:57;3.00;99.90
8994;DHT22;4532;50.886;4.700;2022-12-16T16:34:43;3.00;99.90
8994;DHT22;4532;50.886;4.700;2022-12-16T16:37:29;2.90;99.90
8994;DHT22;4532;50.886;4.700;2022-12-16T16:40:31;2.90;99.90
8994;DHT22;4532;50.886;4.700;2022-12-16T16:43:21;2.80;99.90
8994;DHT22;4532;50.886;4.700;2022-12-16T16:49:08;2.70;99.90
8994;DHT22;4532;50.886;4.700;2022-12-16T16:51:54;2.70;99.90
8994;DHT22;4532;50.886;4.700;2022-12-16T16:54:42;2.60;99.90
8994;DHT22;4532;50.886;4.700;2022-12-16T16:57:31;2.60;99.90
8994;DHT22;4532;50.886;4.700;2022-12-16T17:00:25;2.60;99.90
8994;DHT22;4532;50.886;4.700;2022-12-16T17:03:11;2.50;99.90
8994;DHT22;4532;50.886;4.700;2022-12-16T17:06:00;2.50;99.90
8994;DHT22;4532;50.886;4.700;2022-12-16T17:08:46;2.40;99.90
8994;DHT22;4532;50.886;4.700;2022-12-16T17:11:37;2.40;99.90
8994;DHT22;4532;50.886;4.700;2022-12-16T17:14:23;2.30;99.90
8994;DHT22;4532;50.886;4.700;2022-12-16T17:17:09;2.30;99.90
8994;DHT22;4532;50.886;4.700;2022-12-16T17:19:55;2.20;99.90
8994;DHT22;4532;50.886;4.700;2022-12-16T17:22:41;2.20;99.90
8994;DHT22;4532;50.886;4.700;2022-12-16T17:25:28;2.10;99.90
8994;DHT22;4532;50.886;4.700;2022-12-16T17:28:14;2.10;99.90
8994;DHT22;4532;50.886;4.700;2022-12-16T17:31:00;2.10;99.90
8994;DHT22;4532;50.886;4.700;2022-12-16T17:33:51;2.00;99.90
8994;DHT22;4532;50.886;4.700;2022-12-16T17:36:39;2.00;99.90
8994;DHT22;4532;50.886;4.700;2022-12-16T17:39:27;2.00;99.90
8994;DHT22;4532;50.886;4.700;2022-12-16T17:42:13;1.90;99.90
8994;DHT22;4532;50.886;4.700;2022-12-16T17:44:59;1.90;99.90
8994;DHT22;4532;50.886;4.700;2022-12-16T17:47:45;1.90;99.90
8994;DHT22;4532;50.886;4.700;2022-12-16T17:50:30;1.90;99.90
8994;DHT22;4532;50.886;4.700;2022-12-16T17:53:18;1.90;99.90
8994;DHT22;4532;50.886;4.700;2022-12-16T17:56:07;1.80;99.90
8994;DHT22;4532;50.886;4.700;2022-12-16T17:58:53;1.80;99.90
8994;DHT22;4532;50.886;4.700;2022-12-16T18:01:38;1.80;99.90
8994;DHT22;4532;50.886;4.700;2022-12-16T18:04:26;1.80;99.90
8994;DHT22;4532;50.886;4.700;2022-12-16T18:07:17;1.80;99.90
8994;DHT22;4532;50.886;4.700;2022-12-16T18:10:23;1.70;99.90
8994;DHT22;4532;50.886;4.700;2022-12-16T18:13:28;1.70;99.90
8994;DHT22;4532;50.886;4.700;2022-12-16T18:16:16;1.70;99.90
8994;DHT22;4532;50.886;4.700;2022-12-16T18:19:02;1.60;99.90
8994;DHT22;4532;50.886;4.700;2022-12-16T18:21:48;1.60;99.90
8994;DHT22;4532;50.886;4.700;2022-12-16T18:24:34;1.60;99.90
8994;DHT22;4532;50.886;4.700;2022-12-16T18:27:19;1.50;99.90
8994;DHT22;4532;50.886;4.700;2022-12-16T18:30:06;1.50;99.90
8994;DHT22;4532;50.886;4.700;2022-12-16T18:33:12;1.50;99.90
8994;DHT22;4532;50.886;4.700;2022-12-16T18:36:00;1.40;99.90
8994;DHT22;4532;50.886;4.700;2022-12-16T18:38:48;1.40;99.90
8994;DHT22;4532;50.886;4.700;2022-12-16T18:41:41;1.40;99.90
8994;DHT22;4532;50.886;4.700;2022-12-16T18:44:30;1.40;99.90
8994;DHT22;4532;50.886;4.700;2022-12-16T18:47:15;1.30;99.90
8994;DHT22;4532;50.886;4.700;2022-12-16T18:50:02;1.30;99.90
8994;DHT22;4532;50.886;4.700;2022-12-16T18:52:58;1.30;99.90
8994;DHT22;4532;50.886;4.700;2022-12-16T18:56:04;1.30;99.90
8994;DHT22;4532;50.886;4.700;2022-12-16T18:58:51;1.20;99.90
8994;DHT22;4532;50.886;4.700;2022-12-16T19:01:39;1.20;99.90
8994;DHT22;4532;50.886;4.700;2022-12-16T19:04:25;1.10;99.90
8994;DHT22;4532;50.886;4.700;2022-12-16T19:07:13;1.20;99.90
8994;DHT22;4532;50.886;4.700;2022-12-16T19:10:02;1.20;99.90
8994;DHT22;4532;50.886;4.700;2022-12-16T19:12:55;1.20;99.90
8994;DHT22;4532;50.886;4.700;2022-12-16T19:15:55;1.10;99.90
8994;DHT22;4532;50.886;4.700;2022-12-16T19:18:42;1.10;99.90
8994;DHT22;4532;50.886;4.700;2022-12-16T19:21:28;1.10;99.90
8994;DHT22;4532;50.886;4.700;2022-12-16T19:24:24;1.10;99.90
8994;DHT22;4532;50.886;4.700;2022-12-16T19:27:11;1.00;99.90
8994;DHT22;4532;50.886;4.700;2022-12-16T19:30:01;1.00;99.90
8994;DHT22;4532;50.886;4.700;2022-12-16T19:32:50;1.00;99.90
8994;DHT22;4532;50.886;4.700;2022-12-16T19:35:36;1.00;99.90
8994;DHT22;4532;50.886;4.700;2022-12-16T19:38:22;1.00;99.90
8994;DHT22;4532;50.886;4.700;2022-12-16T19:41:17;0.90;99.90
8994;DHT22;4532;50.886;4.700;2022-12-16T19:44:05;0.90;99.90
8994;DHT22;4532;50.886;4.700;2022-12-16T19:46:51;0.90;99.90
8994;DHT22;4532;50.886;4.700;2022-12-16T19:49:43;0.90;99.90
8994;DHT22;4532;50.886;4.700;2022-12-16T19:52:29;0.90;99.90
8994;DHT22;4532;50.886;4.700;2022-12-16T19:55:14;0.90;99.90
8994;DHT22;4532;50.886;4.700;2022-12-16T19:58:00;0.80;99.90
8994;DHT22;4532;50.886;4.700;2022-12-16T20:00:46;0.80;99.90
8994;DHT22;4532;50.886;4.700;2022-12-16T20:03:34;0.80;99.90
8994;DHT22;4532;50.886;4.700;2022-12-16T20:06:25;0.80;99.90
8994;DHT22;4532;50.886;4.700;2022-12-16T20:09:13;0.70;99.90
8994;DHT22;4532;50.886;4.700;2022-12-16T20:11:59;0.70;99.90